Estación Meteorológica Peña el Pijo (Robertgarden) [ 12/11/19 23:46:14 CET ]

Fecha Hora Presion(HPa) Temp (°C) Humedad % Rocio (°C) Viento ( m/s) Direccion Lluvia 1Hora(mm) Lluvia 24H(mm) LLuvia Total(mm)
2019-Aug-15 01:01:53 1014.100 17.8 65 11.1         363.34
2019-Aug-15 02:02:05 1014.200 16.5 67 10.4         363.34
2019-Aug-15 03:01:39 1013.600 15.5 66 9.2         363.34
2019-Aug-15 04:03:08 1013.400 16.6 68 8.7         363.34
2019-Aug-15 05:01:52 1013.200 14.4 68 8.5         363.34
2019-Aug-15 06:01:34 1013.100 13.8 67 7.8         363.34
2019-Aug-15 07:01:49 1013.200 13.1 67 7.1         363.34
2019-Aug-15 08:02:03 1013.500 12.4 69 6.9         363.34
2019-Aug-15 09:01:43 1013.400 19.2 60 11.3         363.34
2019-Aug-15 10:01:27 1013.200 26.8 43 13.1         363.34
2019-Aug-15 11:01:46 1013.000 32.0 31 12.7         363.34
2019-Aug-15 12:01:50 1013.100 32.6 27 11.0         363.34
2019-Aug-15 13:02:02 1012.500 34.1 25 11.0         363.34
2019-Aug-15 14:01:43 1012.400 34.4 25 11.3         363.34
2019-Aug-15 15:01:36 1012.100 33.9 28 12.7         363.34
2019-Aug-15 16:01:31 1011.900 34.6 30 14.5         363.34
2019-Aug-15 17:01:48 1011.500 32.8 30 13.0         363.34
2019-Aug-15 18:01:45 1011.400 32.5 28 11.5 1.6 SSW     363.34
2019-Aug-15 19:01:55 1011.600 29.6 30 10.2         363.34
2019-Aug-15 18:01:56 1011.800 28.6 33 10.7 1.7 NNW     363.34
2019-Aug-15 19:01:47 1012.300 26.8 37 10.8         363.34
2019-Aug-15 20:01:37 1012.600 24.1 42 10.4         363.34
2019-Aug-15 21:01:28 1013.100 20.9 50 10.1         363.34
2019-Aug-15 22:01:50 1013.600 18.8 56 9.8         363.34
2019-Aug-15 23:01:36 1013.600 17.2 60 9.4         363.34

Temperatura Máxima:34°    Temperatura Mínima:12°
Presión Máxima:1014.200 Hpa    Presión Mínima:1011.400 Hpa


Volver